createdAt,value
2022-12-01T00:04:23.262Z,101470.19
2022-12-01T00:09:41.344Z,101470.19
2022-12-01T00:14:44.079Z,101470.06
2022-12-01T00:19:47.258Z,101464.22
2022-12-01T00:24:52.392Z,101466.13
2022-12-01T00:29:55.145Z,101462.50
2022-12-01T00:34:57.966Z,101461.56
2022-12-01T00:40:02.395Z,101467.75
2022-12-01T00:45:06.135Z,101460.59
2022-12-01T00:50:09.666Z,101470.34
2022-12-01T00:55:13.795Z,101473.03
2022-12-01T01:00:18.177Z,101469.00
2022-12-01T01:05:20.991Z,101479.59
2022-12-01T01:10:25.164Z,101479.59
2022-12-01T01:15:28.213Z,101487.00
2022-12-01T01:20:31.018Z,101497.00
2022-12-01T01:25:35.312Z,101492.47
2022-12-01T01:30:40.380Z,101499.47
2022-12-01T01:35:43.198Z,101502.34
2022-12-01T01:40:48.407Z,101508.47
2022-12-01T01:45:51.408Z,101505.22
2022-12-01T01:50:54.271Z,101506.88
2022-12-01T01:55:58.811Z,101506.88
2022-12-01T02:01:01.755Z,101506.88
2022-12-01T02:06:05.916Z,101506.19
2022-12-01T02:11:34.464Z,101506.00
2022-12-01T02:16:45.442Z,101503.78
2022-12-01T02:22:04.107Z,101500.00
2022-12-01T02:27:15.031Z,101501.59
2022-12-01T02:32:30.470Z,101502.44
2022-12-01T02:37:41.915Z,101498.06
2022-12-01T02:42:54.186Z,101500.84
2022-12-01T02:48:02.947Z,101492.00
2022-12-01T02:53:09.124Z,101498.13
2022-12-01T02:58:15.455Z,101497.31
2022-12-01T03:03:35.932Z,101494.59
2022-12-01T03:08:49.104Z,101498.03
2022-12-01T03:14:06.567Z,101504.34
2022-12-01T03:19:15.485Z,101500.78
2022-12-01T03:24:20.516Z,101498.88
2022-12-01T03:29:27.828Z,101494.34
2022-12-01T03:34:37.885Z,101486.28
2022-12-01T03:39:43.936Z,101487.31
2022-12-01T03:44:50.011Z,101480.13
2022-12-01T03:49:55.665Z,101482.16
2022-12-01T03:55:09.110Z,101485.59
2022-12-01T04:00:14.528Z,101482.97
2022-12-01T04:05:23.857Z,101497.31
2022-12-01T04:10:28.455Z,101492.78
2022-12-01T04:15:31.251Z,101503.38
2022-12-01T04:20:35.475Z,101507.97
2022-12-01T04:25:38.313Z,101510.84
2022-12-01T04:30:41.048Z,101512.84
2022-12-01T04:35:45.195Z,101509.19
2022-12-01T04:40:48.044Z,101508.41
2022-12-01T04:45:50.947Z,101509.22
2022-12-01T04:50:55.042Z,101498.47
2022-12-01T04:55:57.874Z,101502.13
2022-12-01T05:01:03.057Z,101505.72
2022-12-01T05:06:09.384Z,101506.72
2022-12-01T05:11:13.499Z,101506.97
2022-12-01T05:16:19.133Z,101502.47
2022-12-01T05:21:23.345Z,101514.78
2022-12-01T05:26:26.198Z,101512.16
2022-12-01T05:31:29.114Z,101517.66
2022-12-01T05:36:33.742Z,101515.78
2022-12-01T05:41:36.515Z,101524.56
2022-12-01T05:46:39.291Z,101524.84
2022-12-01T05:51:43.589Z,101528.41
2022-12-01T05:56:46.409Z,101527.53
2022-12-01T06:01:49.214Z,101532.81
2022-12-01T06:06:53.432Z,101537.59
2022-12-01T06:11:56.225Z,101546.53
2022-12-01T06:16:59.002Z,101535.91
2022-12-01T06:22:03.545Z,101539.63
2022-12-01T06:27:06.447Z,101549.53
2022-12-01T06:32:09.293Z,101549.53
2022-12-01T06:37:15.468Z,101554.59
2022-12-01T06:42:18.255Z,101557.25
2022-12-01T06:47:21.070Z,101563.31
2022-12-01T06:52:25.185Z,101560.78
2022-12-01T06:57:28.064Z,101568.69
2022-12-01T07:02:31.153Z,101564.25
2022-12-01T07:07:38.269Z,101564.41
2022-12-01T07:12:41.419Z,101574.31
2022-12-01T07:17:44.170Z,101582.06
2022-12-01T07:22:48.269Z,101582.91
2022-12-01T07:27:51.074Z,101589.97
2022-12-01T07:32:53.941Z,101581.91
2022-12-01T07:37:58.085Z,101588.03
2022-12-01T07:43:00.896Z,101587.69
2022-12-01T07:48:03.773Z,101590.72
2022-12-01T07:53:07.910Z,101591.69
2022-12-01T07:58:10.703Z,101588.03
2022-12-01T08:03:14.318Z,101591.81
2022-12-01T08:08:18.777Z,101591.44
2022-12-01T08:13:24.038Z,101606.97
2022-12-01T08:18:26.835Z,101605.28
2022-12-01T08:23:31.023Z,101606.03
2022-12-01T08:28:36.534Z,101607.78
2022-12-01T08:33:39.494Z,101617.63
2022-12-01T08:38:45.875Z,101611.59
2022-12-01T08:44:03.986Z,101626.25
2022-12-01T08:49:07.569Z,101623.41
2022-12-01T08:54:12.909Z,101629.22
2022-12-01T08:59:15.743Z,101624.09
2022-12-01T09:04:19.077Z,101628.63
2022-12-01T09:09:27.181Z,101621.34
2022-12-01T09:14:30.106Z,101631.06
2022-12-01T09:19:33.270Z,101635.16
2022-12-01T09:24:37.583Z,101635.59
2022-12-01T09:29:40.320Z,101643.78
2022-12-01T09:34:43.142Z,101639.44
2022-12-01T09:39:47.459Z,101648.81
2022-12-01T09:44:53.840Z,101644.34
2022-12-01T09:50:00.619Z,101640.72
2022-12-01T09:55:08.032Z,101640.03
2022-12-01T10:00:15.820Z,101636.72
2022-12-01T10:05:22.024Z,101638.84
2022-12-01T10:10:29.976Z,101642.38
2022-12-01T10:15:47.235Z,101626.97
2022-12-01T10:20:57.847Z,101631.81
2022-12-01T10:26:14.056Z,101628.59
2022-12-01T10:31:21.383Z,101622.78
2022-12-01T10:36:27.402Z,101621.16
2022-12-01T10:41:35.376Z,101612.16
2022-12-01T10:46:44.532Z,101613.25
2022-12-01T10:51:55.570Z,101608.03
2022-12-01T10:57:00.506Z,101603.88
2022-12-01T11:02:05.235Z,101608.91
2022-12-01T11:07:08.332Z,101606.03
2022-12-01T11:12:16.535Z,101617.19
2022-12-01T11:17:33.434Z,101606.00
2022-12-01T11:22:36.404Z,101606.00
2022-12-01T11:27:51.623Z,101601.38
2022-12-01T11:32:57.117Z,101612.03
2022-12-01T11:43:31.327Z,101605.09
2022-12-01T11:48:36.244Z,101605.50
2022-12-01T11:53:41.047Z,101599.44
2022-12-01T11:58:47.579Z,101595.84
2022-12-01T12:03:59.558Z,101593.50
2022-12-01T12:09:17.002Z,101587.88
2022-12-01T12:14:42.779Z,101590.59
2022-12-01T12:20:08.131Z,101588.22
2022-12-01T12:25:26.232Z,101581.56
2022-12-01T12:30:32.949Z,101588.44
2022-12-01T12:35:42.603Z,101580.84
2022-12-01T12:40:54.305Z,101576.69
2022-12-01T12:46:09.188Z,101574.84
2022-12-01T12:51:19.235Z,101570.84
2022-12-01T12:56:25.525Z,101572.06
2022-12-01T13:01:34.749Z,101567.97
2022-12-01T13:06:41.689Z,101566.00
2022-12-01T13:11:48.579Z,101564.72
2022-12-01T13:16:56.489Z,101562.25
2022-12-01T13:22:00.983Z,101561.31
2022-12-01T13:27:07.725Z,101559.06
2022-12-01T13:32:28.705Z,101548.13
2022-12-01T13:37:33.861Z,101545.63
2022-12-01T13:42:37.509Z,101549.75
2022-12-01T13:47:51.739Z,101549.63
2022-12-01T13:53:12.040Z,101554.69
2022-12-01T13:58:44.024Z,101554.78
2022-12-01T14:03:56.937Z,101557.56
2022-12-01T14:09:02.509Z,101564.28
2022-12-01T14:14:26.424Z,101553.25
2022-12-01T14:19:36.888Z,101557.75
2022-12-01T14:24:43.449Z,101562.34
2022-12-01T14:29:46.255Z,101567.06
2022-12-01T14:34:56.984Z,101571.84
2022-12-01T14:40:06.675Z,101561.25
2022-12-01T14:45:14.539Z,101571.19
2022-12-01T14:50:24.993Z,101580.97
2022-12-01T14:55:32.383Z,101583.50
2022-12-01T15:00:37.601Z,101591.00
2022-12-01T15:05:44.445Z,101580.34
2022-12-01T15:10:52.492Z,101584.94
2022-12-01T15:15:57.302Z,101568.00
2022-12-01T15:21:06.853Z,101568.00
2022-12-01T15:26:19.860Z,101558.09
2022-12-01T15:31:22.807Z,101550.50
2022-12-01T15:36:27.179Z,101559.22
2022-12-01T15:41:30.920Z,101563.75
2022-12-01T15:46:35.247Z,101568.84
2022-12-01T15:51:39.636Z,101570.66
2022-12-01T15:56:42.790Z,101565.38
2022-12-01T16:01:46.117Z,101571.84
2022-12-01T16:06:58.023Z,101567.47
2022-12-01T16:12:06.203Z,101576.13
2022-12-01T16:17:11.071Z,101566.75
2022-12-01T16:22:18.415Z,101561.38
2022-12-01T16:27:24.988Z,101564.13
2022-12-01T16:32:33.400Z,101568.09
2022-12-01T16:37:37.619Z,101568.78
2022-12-01T16:42:40.714Z,101563.50
2022-12-01T16:47:44.486Z,101576.78
2022-12-01T16:52:48.640Z,101580.03
2022-12-01T16:57:51.438Z,101572.97
2022-12-01T17:02:54.389Z,101578.63
2022-12-01T17:07:58.688Z,101571.69
2022-12-01T17:13:01.542Z,101583.25
2022-12-01T17:18:04.462Z,101579.16
2022-12-01T17:23:08.732Z,101582.06
2022-12-01T17:28:11.529Z,101592.72
2022-12-01T17:33:14.595Z,101593.53
2022-12-01T17:38:19.528Z,101593.47
2022-12-01T17:43:23.437Z,101600.72
2022-12-01T17:48:27.205Z,101598.22
2022-12-01T17:53:33.094Z,101603.44
2022-12-01T17:58:36.812Z,101592.69
2022-12-01T18:03:39.604Z,101607.63
2022-12-01T18:08:44.014Z,101593.47
2022-12-01T18:13:48.896Z,101604.25
2022-12-01T18:18:52.205Z,101602.59
2022-12-01T18:23:58.075Z,101596.38
2022-12-01T18:29:04.837Z,101603.38
2022-12-01T18:34:09.021Z,101602.59
2022-12-01T18:39:13.259Z,101610.66
2022-12-01T18:44:16.094Z,101603.63
2022-12-01T18:49:19.086Z,101602.72
2022-12-01T18:54:23.255Z,101609.00
2022-12-01T18:59:26.874Z,101603.69
2022-12-01T19:04:29.768Z,101600.03
2022-12-01T19:09:34.159Z,101596.47
2022-12-01T19:14:37.119Z,101601.97
2022-12-01T19:19:40.016Z,101597.59
2022-12-01T19:24:49.909Z,101591.31
2022-12-01T19:29:53.919Z,101600.03
2022-12-01T19:34:56.981Z,101599.13
2022-12-01T19:40:01.067Z,101597.38
2022-12-01T19:45:04.517Z,101592.91
2022-12-01T19:50:08.592Z,101589.38
2022-12-01T19:55:12.773Z,101592.09
2022-12-01T20:00:16.227Z,101596.47
2022-12-01T20:05:19.306Z,101593.78
2022-12-01T20:10:23.502Z,101590.16
2022-12-01T20:15:26.322Z,101586.75
2022-12-01T20:20:29.155Z,101589.56
2022-12-01T20:25:34.187Z,101584.47
2022-12-01T20:30:40.928Z,101573.06
2022-12-01T20:35:43.752Z,101576.69
2022-12-01T20:40:51.035Z,101573.28
2022-12-01T20:45:53.931Z,101577.66
2022-12-01T20:50:56.862Z,101571.28
2022-12-01T20:56:04.522Z,101584.75
2022-12-01T21:01:09.514Z,101584.88
2022-12-01T21:06:14.096Z,101581.34
2022-12-01T21:11:42.353Z,101572.31
2022-12-01T21:16:49.146Z,101572.59
2022-12-01T21:21:52.147Z,101564.78
2022-12-01T21:27:00.339Z,101562.09
2022-12-01T21:32:12.428Z,101566.38
2022-12-01T21:37:26.319Z,101556.16
2022-12-01T21:42:32.823Z,101555.00
2022-12-01T21:47:35.851Z,101557.63
2022-12-01T21:52:41.430Z,101560.22
2022-12-01T21:57:48.111Z,101556.72
2022-12-01T22:02:53.225Z,101549.72
2022-12-01T22:08:01.716Z,101556.88
2022-12-01T22:13:10.739Z,101545.44
2022-12-01T22:18:22.658Z,101543.63
2022-12-01T22:23:32.800Z,101545.41
2022-12-01T22:28:37.164Z,101532.84
2022-12-01T22:33:39.896Z,101536.25
2022-12-01T22:38:42.652Z,101531.13
2022-12-01T22:43:49.349Z,101524.03
2022-12-01T22:48:53.756Z,101531.31
2022-12-01T22:54:01.003Z,101530.38
2022-12-01T22:59:14.091Z,101518.91
2022-12-01T23:04:27.683Z,101520.47
2022-12-01T23:09:36.520Z,101525.94
2022-12-01T23:14:44.289Z,101519.75
2022-12-01T23:19:47.326Z,101516.94
2022-12-01T23:24:50.429Z,101512.59
2022-12-01T23:29:55.171Z,101514.63
2022-12-01T23:35:00.326Z,101506.66
2022-12-01T23:40:15.864Z,101503.19
2022-12-01T23:45:23.655Z,101497.97
2022-12-01T23:50:27.720Z,101492.56
2022-12-01T23:55:31.951Z,101490.66
